sensor_id;sensor_type;location;lat;lon;timestamp;P1;durP1;ratioP1;P2;durP2;ratioP2
70975;SDS011;58635;51.198;6.010;2022-07-06T00:01:05;5.55;;;2.38;;
70975;SDS011;58635;51.198;6.010;2022-07-06T00:03:31;6.07;;;2.30;;
70975;SDS011;58635;51.198;6.010;2022-07-06T00:05:56;2.95;;;1.73;;
70975;SDS011;58635;51.198;6.010;2022-07-06T00:08:21;8.50;;;2.00;;
70975;SDS011;58635;51.198;6.010;2022-07-06T00:10:47;4.18;;;1.95;;
70975;SDS011;58635;51.198;6.010;2022-07-06T00:13:12;5.15;;;2.40;;
70975;SDS011;58635;51.198;6.010;2022-07-06T00:15:38;4.20;;;2.10;;
70975;SDS011;58635;51.198;6.010;2022-07-06T00:18:03;4.95;;;2.25;;
70975;SDS011;58635;51.198;6.010;2022-07-06T00:20:28;4.97;;;2.05;;
70975;SDS011;58635;51.198;6.010;2022-07-06T00:22:54;5.43;;;2.25;;
70975;SDS011;58635;51.198;6.010;2022-07-06T00:25:19;6.22;;;2.10;;
70975;SDS011;58635;51.198;6.010;2022-07-06T00:27:45;4.20;;;2.33;;
70975;SDS011;58635;51.198;6.010;2022-07-06T00:30:10;4.85;;;2.20;;
70975;SDS011;58635;51.198;6.010;2022-07-06T00:32:36;5.75;;;2.17;;
70975;SDS011;58635;51.198;6.010;2022-07-06T00:35:01;4.70;;;1.98;;
70975;SDS011;58635;51.198;6.010;2022-07-06T00:37:26;3.75;;;2.00;;
70975;SDS011;58635;51.198;6.010;2022-07-06T00:39:52;5.30;;;2.20;;
70975;SDS011;58635;51.198;6.010;2022-07-06T00:42:17;5.13;;;2.38;;
70975;SDS011;58635;51.198;6.010;2022-07-06T00:44:42;6.57;;;2.17;;
70975;SDS011;58635;51.198;6.010;2022-07-06T00:47:08;4.25;;;2.00;;
70975;SDS011;58635;51.198;6.010;2022-07-06T00:49:33;4.82;;;2.17;;
70975;SDS011;58635;51.198;6.010;2022-07-06T00:52:17;4.10;;;2.17;;
70975;SDS011;58635;51.198;6.010;2022-07-06T00:54:43;5.68;;;2.20;;
70975;SDS011;58635;51.198;6.010;2022-07-06T00:57:10;4.05;;;1.88;;
70975;SDS011;58635;51.198;6.010;2022-07-06T00:59:35;3.75;;;2.08;;
70975;SDS011;58635;51.198;6.010;2022-07-06T01:02:02;4.90;;;2.00;;
70975;SDS011;58635;51.198;6.010;2022-07-06T01:04:27;7.05;;;2.17;;
70975;SDS011;58635;51.198;6.010;2022-07-06T01:06:53;5.15;;;2.08;;
70975;SDS011;58635;51.198;6.010;2022-07-06T01:09:19;4.43;;;2.20;;
70975;SDS011;58635;51.198;6.010;2022-07-06T01:11:44;4.32;;;1.90;;
70975;SDS011;58635;51.198;6.010;2022-07-06T01:14:10;6.80;;;2.60;;
70975;SDS011;58635;51.198;6.010;2022-07-06T01:16:37;4.43;;;2.10;;
70975;SDS011;58635;51.198;6.010;2022-07-06T01:19:02;4.50;;;2.03;;
70975;SDS011;58635;51.198;6.010;2022-07-06T01:21:28;3.83;;;2.13;;
70975;SDS011;58635;51.198;6.010;2022-07-06T01:23:53;3.63;;;1.85;;
70975;SDS011;58635;51.198;6.010;2022-07-06T01:26:19;4.85;;;2.10;;
70975;SDS011;58635;51.198;6.010;2022-07-06T01:28:46;6.03;;;2.35;;
70975;SDS011;58635;51.198;6.010;2022-07-06T01:31:14;4.72;;;2.08;;
70975;SDS011;58635;51.198;6.010;2022-07-06T01:33:48;4.00;;;2.08;;
70975;SDS011;58635;51.198;6.010;2022-07-06T01:36:15;6.05;;;2.33;;
70975;SDS011;58635;51.198;6.010;2022-07-06T01:38:44;6.22;;;2.63;;
70975;SDS011;58635;51.198;6.010;2022-07-06T01:41:10;4.28;;;2.35;;
70975;SDS011;58635;51.198;6.010;2022-07-06T01:43:36;2.97;;;1.80;;
70975;SDS011;58635;51.198;6.010;2022-07-06T01:46:01;7.55;;;2.38;;
70975;SDS011;58635;51.198;6.010;2022-07-06T01:48:26;8.90;;;2.55;;
70975;SDS011;58635;51.198;6.010;2022-07-06T01:50:52;4.50;;;2.20;;
70975;SDS011;58635;51.198;6.010;2022-07-06T01:53:17;3.90;;;2.30;;
70975;SDS011;58635;51.198;6.010;2022-07-06T01:55:42;4.07;;;2.53;;
70975;SDS011;58635;51.198;6.010;2022-07-06T01:58:08;5.50;;;2.63;;
70975;SDS011;58635;51.198;6.010;2022-07-06T02:00:33;4.53;;;2.60;;
70975;SDS011;58635;51.198;6.010;2022-07-06T02:02:58;4.63;;;2.38;;
70975;SDS011;58635;51.198;6.010;2022-07-06T02:05:24;7.13;;;2.65;;
70975;SDS011;58635;51.198;6.010;2022-07-06T02:07:49;5.07;;;2.42;;
70975;SDS011;58635;51.198;6.010;2022-07-06T02:10:15;7.60;;;2.50;;
70975;SDS011;58635;51.198;6.010;2022-07-06T02:12:40;5.35;;;2.40;;
70975;SDS011;58635;51.198;6.010;2022-07-06T02:15:05;5.03;;;2.80;;
70975;SDS011;58635;51.198;6.010;2022-07-06T02:17:31;6.47;;;2.60;;
70975;SDS011;58635;51.198;6.010;2022-07-06T02:19:57;7.93;;;2.83;;
70975;SDS011;58635;51.198;6.010;2022-07-06T02:22:22;6.32;;;2.90;;
70975;SDS011;58635;51.198;6.010;2022-07-06T02:24:47;5.38;;;2.60;;
70975;SDS011;58635;51.198;6.010;2022-07-06T02:27:13;5.63;;;2.72;;
70975;SDS011;58635;51.198;6.010;2022-07-06T02:29:38;7.78;;;2.95;;
70975;SDS011;58635;51.198;6.010;2022-07-06T02:32:03;6.80;;;3.13;;
70975;SDS011;58635;51.198;6.010;2022-07-06T02:34:29;5.55;;;3.00;;
70975;SDS011;58635;51.198;6.010;2022-07-06T02:36:54;5.00;;;2.63;;
70975;SDS011;58635;51.198;6.010;2022-07-06T02:39:20;3.70;;;2.95;;
70975;SDS011;58635;51.198;6.010;2022-07-06T02:41:45;5.80;;;2.60;;
70975;SDS011;58635;51.198;6.010;2022-07-06T02:44:10;7.00;;;2.78;;
70975;SDS011;58635;51.198;6.010;2022-07-06T02:46:36;6.38;;;3.40;;
70975;SDS011;58635;51.198;6.010;2022-07-06T02:49:01;5.88;;;3.13;;
70975;SDS011;58635;51.198;6.010;2022-07-06T02:51:26;5.28;;;2.60;;
70975;SDS011;58635;51.198;6.010;2022-07-06T02:53:52;5.90;;;2.90;;
70975;SDS011;58635;51.198;6.010;2022-07-06T02:56:17;5.75;;;3.08;;
70975;SDS011;58635;51.198;6.010;2022-07-06T02:58:43;5.45;;;3.25;;
70975;SDS011;58635;51.198;6.010;2022-07-06T03:01:08;6.78;;;3.30;;
70975;SDS011;58635;51.198;6.010;2022-07-06T03:03:33;9.73;;;3.50;;
70975;SDS011;58635;51.198;6.010;2022-07-06T03:05:59;7.20;;;3.45;;
70975;SDS011;58635;51.198;6.010;2022-07-06T03:08:24;5.07;;;3.40;;
70975;SDS011;58635;51.198;6.010;2022-07-06T03:10:49;8.90;;;3.40;;
70975;SDS011;58635;51.198;6.010;2022-07-06T03:13:15;6.32;;;3.60;;
70975;SDS011;58635;51.198;6.010;2022-07-06T03:15:40;6.95;;;3.53;;
70975;SDS011;58635;51.198;6.010;2022-07-06T03:18:06;5.75;;;3.47;;
70975;SDS011;58635;51.198;6.010;2022-07-06T03:20:31;7.07;;;3.70;;
70975;SDS011;58635;51.198;6.010;2022-07-06T03:22:56;8.85;;;3.90;;
70975;SDS011;58635;51.198;6.010;2022-07-06T03:25:22;5.72;;;3.55;;
70975;SDS011;58635;51.198;6.010;2022-07-06T03:27:47;8.00;;;3.67;;
70975;SDS011;58635;51.198;6.010;2022-07-06T03:30:13;8.15;;;3.50;;
70975;SDS011;58635;51.198;6.010;2022-07-06T03:32:39;6.28;;;3.97;;
70975;SDS011;58635;51.198;6.010;2022-07-06T03:35:04;7.30;;;3.45;;
70975;SDS011;58635;51.198;6.010;2022-07-06T03:37:31;9.10;;;3.67;;
70975;SDS011;58635;51.198;6.010;2022-07-06T03:39:57;8.57;;;3.60;;
70975;SDS011;58635;51.198;6.010;2022-07-06T03:42:22;6.53;;;3.30;;
70975;SDS011;58635;51.198;6.010;2022-07-06T03:44:48;3.95;;;3.10;;
70975;SDS011;58635;51.198;6.010;2022-07-06T03:47:13;4.82;;;3.60;;
70975;SDS011;58635;51.198;6.010;2022-07-06T03:49:38;8.30;;;3.85;;
70975;SDS011;58635;51.198;6.010;2022-07-06T03:52:04;4.97;;;3.50;;
70975;SDS011;58635;51.198;6.010;2022-07-06T03:54:30;8.02;;;3.40;;
70975;SDS011;58635;51.198;6.010;2022-07-06T03:56:56;5.43;;;3.63;;
70975;SDS011;58635;51.198;6.010;2022-07-06T03:59:21;7.57;;;3.70;;
70975;SDS011;58635;51.198;6.010;2022-07-06T04:01:46;8.02;;;4.10;;
70975;SDS011;58635;51.198;6.010;2022-07-06T04:04:12;4.95;;;3.38;;
70975;SDS011;58635;51.198;6.010;2022-07-06T04:06:37;6.53;;;3.60;;
70975;SDS011;58635;51.198;6.010;2022-07-06T04:09:03;6.78;;;3.65;;
70975;SDS011;58635;51.198;6.010;2022-07-06T04:11:29;6.75;;;3.92;;
70975;SDS011;58635;51.198;6.010;2022-07-06T04:13:54;6.75;;;3.85;;
70975;SDS011;58635;51.198;6.010;2022-07-06T04:16:20;7.57;;;3.95;;
70975;SDS011;58635;51.198;6.010;2022-07-06T04:18:45;6.03;;;4.15;;
70975;SDS011;58635;51.198;6.010;2022-07-06T04:21:11;9.05;;;4.13;;
70975;SDS011;58635;51.198;6.010;2022-07-06T04:23:36;6.60;;;3.88;;
70975;SDS011;58635;51.198;6.010;2022-07-06T04:26:02;7.03;;;4.80;;
70975;SDS011;58635;51.198;6.010;2022-07-06T04:28:27;7.75;;;4.00;;
70975;SDS011;58635;51.198;6.010;2022-07-06T04:30:53;9.00;;;3.80;;
70975;SDS011;58635;51.198;6.010;2022-07-06T04:33:18;6.55;;;4.30;;
70975;SDS011;58635;51.198;6.010;2022-07-06T04:35:44;6.90;;;4.10;;
70975;SDS011;58635;51.198;6.010;2022-07-06T04:38:09;10.00;;;4.80;;
70975;SDS011;58635;51.198;6.010;2022-07-06T04:40:34;8.93;;;4.50;;
70975;SDS011;58635;51.198;6.010;2022-07-06T04:43:00;10.35;;;4.45;;
70975;SDS011;58635;51.198;6.010;2022-07-06T04:45:25;8.60;;;4.13;;
70975;SDS011;58635;51.198;6.010;2022-07-06T04:47:51;8.70;;;4.30;;
70975;SDS011;58635;51.198;6.010;2022-07-06T04:50:16;9.80;;;4.75;;
70975;SDS011;58635;51.198;6.010;2022-07-06T04:52:42;7.70;;;4.22;;
70975;SDS011;58635;51.198;6.010;2022-07-06T04:55:08;10.75;;;4.45;;
70975;SDS011;58635;51.198;6.010;2022-07-06T04:57:34;8.98;;;4.20;;
70975;SDS011;58635;51.198;6.010;2022-07-06T04:59:59;11.55;;;4.13;;
70975;SDS011;58635;51.198;6.010;2022-07-06T05:02:25;7.82;;;3.60;;
70975;SDS011;58635;51.198;6.010;2022-07-06T05:04:50;8.93;;;3.85;;
70975;SDS011;58635;51.198;6.010;2022-07-06T05:07:16;10.13;;;3.55;;
70975;SDS011;58635;51.198;6.010;2022-07-06T05:09:41;8.30;;;3.88;;
70975;SDS011;58635;51.198;6.010;2022-07-06T05:12:07;7.80;;;3.72;;
70975;SDS011;58635;51.198;6.010;2022-07-06T05:14:33;8.18;;;3.45;;
70975;SDS011;58635;51.198;6.010;2022-07-06T05:16:59;8.57;;;3.42;;
70975;SDS011;58635;51.198;6.010;2022-07-06T05:19:24;6.25;;;2.92;;
70975;SDS011;58635;51.198;6.010;2022-07-06T05:21:50;7.40;;;3.30;;
70975;SDS011;58635;51.198;6.010;2022-07-06T05:24:15;6.45;;;3.00;;
70975;SDS011;58635;51.198;6.010;2022-07-06T05:26:41;7.22;;;2.95;;
70975;SDS011;58635;51.198;6.010;2022-07-06T05:29:07;7.22;;;2.90;;
70975;SDS011;58635;51.198;6.010;2022-07-06T05:31:32;10.18;;;3.03;;
70975;SDS011;58635;51.198;6.010;2022-07-06T05:33:57;6.38;;;2.92;;
70975;SDS011;58635;51.198;6.010;2022-07-06T05:36:23;11.00;;;3.05;;
70975;SDS011;58635;51.198;6.010;2022-07-06T05:38:48;8.70;;;2.70;;
70975;SDS011;58635;51.198;6.010;2022-07-06T05:41:13;10.88;;;3.38;;
70975;SDS011;58635;51.198;6.010;2022-07-06T05:43:39;8.23;;;3.38;;
70975;SDS011;58635;51.198;6.010;2022-07-06T05:46:04;7.05;;;2.80;;
70975;SDS011;58635;51.198;6.010;2022-07-06T05:48:30;7.22;;;3.90;;
70975;SDS011;58635;51.198;6.010;2022-07-06T05:51:14;5.03;;;3.00;;
70975;SDS011;58635;51.198;6.010;2022-07-06T05:53:39;11.27;;;3.00;;
70975;SDS011;58635;51.198;6.010;2022-07-06T05:56:04;6.43;;;2.80;;
70975;SDS011;58635;51.198;6.010;2022-07-06T05:58:30;6.05;;;3.10;;
70975;SDS011;58635;51.198;6.010;2022-07-06T06:00:55;6.43;;;2.63;;
70975;SDS011;58635;51.198;6.010;2022-07-06T06:03:21;6.97;;;2.92;;
70975;SDS011;58635;51.198;6.010;2022-07-06T06:05:46;8.05;;;3.05;;
70975;SDS011;58635;51.198;6.010;2022-07-06T06:08:11;6.00;;;2.80;;
70975;SDS011;58635;51.198;6.010;2022-07-06T06:10:37;6.93;;;3.05;;
70975;SDS011;58635;51.198;6.010;2022-07-06T06:13:02;5.18;;;2.33;;
70975;SDS011;58635;51.198;6.010;2022-07-06T06:15:29;4.80;;;2.63;;
70975;SDS011;58635;51.198;6.010;2022-07-06T06:17:54;6.82;;;2.70;;
70975;SDS011;58635;51.198;6.010;2022-07-06T06:20:20;4.43;;;3.05;;
70975;SDS011;58635;51.198;6.010;2022-07-06T06:22:55;6.47;;;3.35;;
70975;SDS011;58635;51.198;6.010;2022-07-06T06:27:58;5.53;;;2.90;;
70975;SDS011;58635;51.198;6.010;2022-07-06T06:30:24;5.95;;;2.70;;
70975;SDS011;58635;51.198;6.010;2022-07-06T06:32:49;6.75;;;2.70;;
70975;SDS011;58635;51.198;6.010;2022-07-06T06:35:15;4.75;;;2.28;;
70975;SDS011;58635;51.198;6.010;2022-07-06T06:37:40;7.22;;;2.10;;
70975;SDS011;58635;51.198;6.010;2022-07-06T06:40:07;4.95;;;1.90;;
70975;SDS011;58635;51.198;6.010;2022-07-06T06:42:35;6.50;;;2.20;;
70975;SDS011;58635;51.198;6.010;2022-07-06T06:45:01;4.90;;;2.40;;
70975;SDS011;58635;51.198;6.010;2022-07-06T06:47:26;5.03;;;3.30;;
70975;SDS011;58635;51.198;6.010;2022-07-06T06:49:51;5.18;;;2.50;;
70975;SDS011;58635;51.198;6.010;2022-07-06T06:52:17;7.30;;;1.83;;
70975;SDS011;58635;51.198;6.010;2022-07-06T06:54:42;4.97;;;1.75;;
70975;SDS011;58635;51.198;6.010;2022-07-06T06:57:08;5.63;;;1.92;;
70975;SDS011;58635;51.198;6.010;2022-07-06T06:59:33;6.63;;;1.92;;
70975;SDS011;58635;51.198;6.010;2022-07-06T07:01:58;5.93;;;1.88;;
70975;SDS011;58635;51.198;6.010;2022-07-06T07:04:24;5.45;;;1.70;;
70975;SDS011;58635;51.198;6.010;2022-07-06T07:06:49;5.47;;;3.50;;
70975;SDS011;58635;51.198;6.010;2022-07-06T07:09:15;5.60;;;3.00;;
70975;SDS011;58635;51.198;6.010;2022-07-06T07:11:40;5.20;;;1.30;;
70975;SDS011;58635;51.198;6.010;2022-07-06T07:14:06;3.60;;;1.00;;
70975;SDS011;58635;51.198;6.010;2022-07-06T07:16:31;3.72;;;0.80;;
70975;SDS011;58635;51.198;6.010;2022-07-06T07:18:57;3.38;;;1.08;;
70975;SDS011;58635;51.198;6.010;2022-07-06T07:21:22;4.35;;;1.02;;
70975;SDS011;58635;51.198;6.010;2022-07-06T07:23:48;2.80;;;1.00;;
70975;SDS011;58635;51.198;6.010;2022-07-06T07:26:15;3.33;;;1.60;;
70975;SDS011;58635;51.198;6.010;2022-07-06T07:28:40;4.68;;;1.88;;
70975;SDS011;58635;51.198;6.010;2022-07-06T07:31:06;3.97;;;1.00;;
70975;SDS011;58635;51.198;6.010;2022-07-06T07:33:32;2.33;;;1.08;;
70975;SDS011;58635;51.198;6.010;2022-07-06T07:35:57;2.13;;;0.90;;
70975;SDS011;58635;51.198;6.010;2022-07-06T07:38:22;2.22;;;0.73;;
70975;SDS011;58635;51.198;6.010;2022-07-06T07:40:48;2.05;;;0.85;;
70975;SDS011;58635;51.198;6.010;2022-07-06T07:43:13;3.38;;;0.80;;
70975;SDS011;58635;51.198;6.010;2022-07-06T07:45:39;2.70;;;0.90;;
70975;SDS011;58635;51.198;6.010;2022-07-06T07:48:04;6.38;;;1.20;;
70975;SDS011;58635;51.198;6.010;2022-07-06T07:50:30;2.55;;;1.10;;
70975;SDS011;58635;51.198;6.010;2022-07-06T07:52:55;2.58;;;1.02;;
70975;SDS011;58635;51.198;6.010;2022-07-06T07:55:21;2.42;;;1.13;;
70975;SDS011;58635;51.198;6.010;2022-07-06T07:57:46;4.75;;;2.28;;
70975;SDS011;58635;51.198;6.010;2022-07-06T08:00:12;5.43;;;1.85;;
70975;SDS011;58635;51.198;6.010;2022-07-06T08:02:38;2.08;;;1.20;;
70975;SDS011;58635;51.198;6.010;2022-07-06T08:05:03;2.22;;;0.90;;
70975;SDS011;58635;51.198;6.010;2022-07-06T08:07:29;3.08;;;0.90;;
70975;SDS011;58635;51.198;6.010;2022-07-06T08:09:54;2.20;;;0.80;;
70975;SDS011;58635;51.198;6.010;2022-07-06T08:12:20;2.83;;;1.10;;
70975;SDS011;58635;51.198;6.010;2022-07-06T08:14:45;2.50;;;0.90;;
70975;SDS011;58635;51.198;6.010;2022-07-06T08:17:11;2.53;;;0.93;;
70975;SDS011;58635;51.198;6.010;2022-07-06T08:19:36;4.03;;;0.85;;
70975;SDS011;58635;51.198;6.010;2022-07-06T08:22:02;2.17;;;0.70;;
70975;SDS011;58635;51.198;6.010;2022-07-06T08:24:32;2.35;;;0.75;;
70975;SDS011;58635;51.198;6.010;2022-07-06T08:26:59;0.90;;;0.68;;
70975;SDS011;58635;51.198;6.010;2022-07-06T08:29:25;1.48;;;0.70;;
70975;SDS011;58635;51.198;6.010;2022-07-06T08:31:50;1.98;;;0.85;;
70975;SDS011;58635;51.198;6.010;2022-07-06T08:34:16;2.25;;;0.80;;
70975;SDS011;58635;51.198;6.010;2022-07-06T08:36:41;5.03;;;1.70;;
70975;SDS011;58635;51.198;6.010;2022-07-06T08:39:06;2.38;;;0.98;;
70975;SDS011;58635;51.198;6.010;2022-07-06T08:41:32;3.67;;;1.20;;
70975;SDS011;58635;51.198;6.010;2022-07-06T08:43:59;7.00;;;1.50;;
70975;SDS011;58635;51.198;6.010;2022-07-06T08:46:26;2.75;;;0.80;;
70975;SDS011;58635;51.198;6.010;2022-07-06T08:48:54;2.13;;;0.70;;
70975;SDS011;58635;51.198;6.010;2022-07-06T08:51:20;2.58;;;1.20;;
70975;SDS011;58635;51.198;6.010;2022-07-06T08:53:47;3.88;;;1.10;;
70975;SDS011;58635;51.198;6.010;2022-07-06T08:56:14;2.25;;;0.82;;
70975;SDS011;58635;51.198;6.010;2022-07-06T08:58:41;3.80;;;0.80;;
70975;SDS011;58635;51.198;6.010;2022-07-06T09:01:09;2.58;;;1.02;;
70975;SDS011;58635;51.198;6.010;2022-07-06T09:03:35;3.03;;;1.05;;
70975;SDS011;58635;51.198;6.010;2022-07-06T09:06:02;4.22;;;0.95;;
70975;SDS011;58635;51.198;6.010;2022-07-06T09:08:28;3.22;;;0.80;;
70975;SDS011;58635;51.198;6.010;2022-07-06T09:10:56;4.07;;;2.22;;
70975;SDS011;58635;51.198;6.010;2022-07-06T09:13:21;4.10;;;1.70;;
70975;SDS011;58635;51.198;6.010;2022-07-06T09:15:47;4.10;;;1.00;;
70975;SDS011;58635;51.198;6.010;2022-07-06T09:18:13;4.38;;;1.00;;
70975;SDS011;58635;51.198;6.010;2022-07-06T09:20:40;4.53;;;1.35;;
70975;SDS011;58635;51.198;6.010;2022-07-06T09:23:06;6.97;;;2.95;;
70975;SDS011;58635;51.198;6.010;2022-07-06T09:25:32;5.32;;;1.40;;
70975;SDS011;58635;51.198;6.010;2022-07-06T09:27:58;9.52;;;1.30;;
70975;SDS011;58635;51.198;6.010;2022-07-06T09:30:25;5.28;;;0.90;;
70975;SDS011;58635;51.198;6.010;2022-07-06T09:32:52;9.55;;;8.35;;
70975;SDS011;58635;51.198;6.010;2022-07-06T09:38:06;2.63;;;0.95;;
70975;SDS011;58635;51.198;6.010;2022-07-06T09:40:34;4.68;;;1.00;;
70975;SDS011;58635;51.198;6.010;2022-07-06T09:45:38;3.50;;;1.00;;
70975;SDS011;58635;51.198;6.010;2022-07-06T09:48:08;4.38;;;1.00;;
70975;SDS011;58635;51.198;6.010;2022-07-06T09:50:38;3.10;;;0.95;;
70975;SDS011;58635;51.198;6.010;2022-07-06T09:53:11;6.43;;;1.08;;
70975;SDS011;58635;51.198;6.010;2022-07-06T09:55:38;4.35;;;2.67;;
70975;SDS011;58635;51.198;6.010;2022-07-06T09:58:04;3.55;;;1.35;;
70975;SDS011;58635;51.198;6.010;2022-07-06T10:00:29;2.47;;;1.48;;
70975;SDS011;58635;51.198;6.010;2022-07-06T10:02:55;1.80;;;0.98;;
70975;SDS011;58635;51.198;6.010;2022-07-06T10:05:21;1.73;;;0.90;;
70975;SDS011;58635;51.198;6.010;2022-07-06T10:07:55;3.65;;;0.93;;
70975;SDS011;58635;51.198;6.010;2022-07-06T10:10:28;3.72;;;2.55;;
70975;SDS011;58635;51.198;6.010;2022-07-06T10:12:57;2.95;;;1.30;;
70975;SDS011;58635;51.198;6.010;2022-07-06T10:15:27;2.53;;;0.90;;
70975;SDS011;58635;51.198;6.010;2022-07-06T10:17:54;1.83;;;0.85;;
70975;SDS011;58635;51.198;6.010;2022-07-06T10:20:20;2.72;;;0.85;;
70975;SDS011;58635;51.198;6.010;2022-07-06T10:22:46;3.88;;;0.88;;
70975;SDS011;58635;51.198;6.010;2022-07-06T10:25:14;2.22;;;0.90;;
70975;SDS011;58635;51.198;6.010;2022-07-06T10:27:41;4.18;;;0.70;;
70975;SDS011;58635;51.198;6.010;2022-07-06T10:30:08;4.82;;;1.05;;
70975;SDS011;58635;51.198;6.010;2022-07-06T10:32:34;3.88;;;0.80;;
70975;SDS011;58635;51.198;6.010;2022-07-06T10:35:01;4.18;;;0.82;;
70975;SDS011;58635;51.198;6.010;2022-07-06T10:37:27;3.17;;;0.93;;
70975;SDS011;58635;51.198;6.010;2022-07-06T10:39:53;6.97;;;1.10;;
70975;SDS011;58635;51.198;6.010;2022-07-06T10:42:44;3.85;;;1.10;;
70975;SDS011;58635;51.198;6.010;2022-07-06T10:45:14;25.70;;;19.90;;
70975;SDS011;58635;51.198;6.010;2022-07-06T10:47:44;25.42;;;4.85;;
70975;SDS011;58635;51.198;6.010;2022-07-06T10:50:10;11.00;;;1.88;;
70975;SDS011;58635;51.198;6.010;2022-07-06T10:52:50;4.75;;;1.17;;
70975;SDS011;58635;51.198;6.010;2022-07-06T10:55:33;3.70;;;0.90;;
70975;SDS011;58635;51.198;6.010;2022-07-06T11:00:25;12.80;;;1.85;;
70975;SDS011;58635;51.198;6.010;2022-07-06T11:02:51;8.85;;;1.42;;
70975;SDS011;58635;51.198;6.010;2022-07-06T11:08:10;6.15;;;1.10;;
70975;SDS011;58635;51.198;6.010;2022-07-06T11:10:48;2.88;;;0.82;;
70975;SDS011;58635;51.198;6.010;2022-07-06T11:13:27;3.17;;;1.00;;
70975;SDS011;58635;51.198;6.010;2022-07-06T11:16:00;4.13;;;0.90;;
70975;SDS011;58635;51.198;6.010;2022-07-06T11:18:39;3.85;;;0.80;;
70975;SDS011;58635;51.198;6.010;2022-07-06T11:23:48;2.60;;;0.70;;
70975;SDS011;58635;51.198;6.010;2022-07-06T11:26:15;2.58;;;0.80;;
70975;SDS011;58635;51.198;6.010;2022-07-06T11:28:42;1.95;;;0.80;;
70975;SDS011;58635;51.198;6.010;2022-07-06T11:31:10;4.15;;;0.98;;
70975;SDS011;58635;51.198;6.010;2022-07-06T11:33:36;2.65;;;0.75;;
70975;SDS011;58635;51.198;6.010;2022-07-06T11:36:17;2.67;;;0.70;;
70975;SDS011;58635;51.198;6.010;2022-07-06T11:38:45;2.17;;;0.60;;
70975;SDS011;58635;51.198;6.010;2022-07-06T11:41:11;4.13;;;0.88;;
70975;SDS011;58635;51.198;6.010;2022-07-06T11:43:41;5.15;;;3.25;;
70975;SDS011;58635;51.198;6.010;2022-07-06T11:46:17;3.05;;;1.20;;
70975;SDS011;58635;51.198;6.010;2022-07-06T11:48:50;1.75;;;0.80;;
70975;SDS011;58635;51.198;6.010;2022-07-06T11:51:18;2.70;;;0.80;;
70975;SDS011;58635;51.198;6.010;2022-07-06T11:53:44;4.75;;;0.90;;
70975;SDS011;58635;51.198;6.010;2022-07-06T11:56:16;1.40;;;0.80;;
70975;SDS011;58635;51.198;6.010;2022-07-06T11:58:47;3.97;;;0.70;;
70975;SDS011;58635;51.198;6.010;2022-07-06T12:01:14;1.48;;;0.80;;
70975;SDS011;58635;51.198;6.010;2022-07-06T12:03:40;1.30;;;0.70;;
70975;SDS011;58635;51.198;6.010;2022-07-06T12:06:12;1.33;;;0.70;;
70975;SDS011;58635;51.198;6.010;2022-07-06T12:08:43;1.40;;;0.70;;
70975;SDS011;58635;51.198;6.010;2022-07-06T12:11:10;2.15;;;0.75;;
70975;SDS011;58635;51.198;6.010;2022-07-06T12:13:41;2.60;;;0.70;;
70975;SDS011;58635;51.198;6.010;2022-07-06T12:16:11;5.05;;;1.00;;
70975;SDS011;58635;51.198;6.010;2022-07-06T12:18:37;2.22;;;1.10;;
70975;SDS011;58635;51.198;6.010;2022-07-06T12:21:06;3.38;;;1.20;;
70975;SDS011;58635;51.198;6.010;2022-07-06T12:23:51;3.17;;;1.10;;
70975;SDS011;58635;51.198;6.010;2022-07-06T12:26:19;6.18;;;3.65;;
70975;SDS011;58635;51.198;6.010;2022-07-06T12:28:46;4.93;;;2.20;;
70975;SDS011;58635;51.198;6.010;2022-07-06T12:31:33;2.42;;;1.13;;
70975;SDS011;58635;51.198;6.010;2022-07-06T12:34:00;2.30;;;1.00;;
70975;SDS011;58635;51.198;6.010;2022-07-06T12:36:26;2.67;;;1.10;;
70975;SDS011;58635;51.198;6.010;2022-07-06T12:38:51;6.25;;;1.00;;
70975;SDS011;58635;51.198;6.010;2022-07-06T12:41:27;2.50;;;0.85;;
70975;SDS011;58635;51.198;6.010;2022-07-06T12:44:05;2.83;;;0.85;;
70975;SDS011;58635;51.198;6.010;2022-07-06T12:46:41;2.13;;;0.90;;
70975;SDS011;58635;51.198;6.010;2022-07-06T12:49:19;4.20;;;1.08;;
70975;SDS011;58635;51.198;6.010;2022-07-06T12:51:50;2.33;;;0.95;;
70975;SDS011;58635;51.198;6.010;2022-07-06T12:54:16;4.20;;;1.00;;
70975;SDS011;58635;51.198;6.010;2022-07-06T12:57:02;3.00;;;0.90;;
70975;SDS011;58635;51.198;6.010;2022-07-06T12:59:38;4.30;;;0.98;;
70975;SDS011;58635;51.198;6.010;2022-07-06T13:02:06;3.53;;;0.70;;
70975;SDS011;58635;51.198;6.010;2022-07-06T13:04:35;4.63;;;1.00;;
70975;SDS011;58635;51.198;6.010;2022-07-06T13:07:02;2.75;;;0.70;;
70975;SDS011;58635;51.198;6.010;2022-07-06T13:09:28;5.22;;;1.10;;
70975;SDS011;58635;51.198;6.010;2022-07-06T13:11:55;3.25;;;1.00;;
70975;SDS011;58635;51.198;6.010;2022-07-06T13:14:21;1.98;;;0.93;;
70975;SDS011;58635;51.198;6.010;2022-07-06T13:16:47;3.38;;;1.10;;
70975;SDS011;58635;51.198;6.010;2022-07-06T13:19:13;2.30;;;0.82;;
70975;SDS011;58635;51.198;6.010;2022-07-06T13:21:38;2.85;;;1.10;;
70975;SDS011;58635;51.198;6.010;2022-07-06T13:24:04;1.63;;;0.88;;
70975;SDS011;58635;51.198;6.010;2022-07-06T13:26:30;2.70;;;0.75;;
70975;SDS011;58635;51.198;6.010;2022-07-06T13:29:00;3.58;;;0.85;;
70975;SDS011;58635;51.198;6.010;2022-07-06T13:31:26;2.33;;;1.10;;
70975;SDS011;58635;51.198;6.010;2022-07-06T13:33:52;2.25;;;0.80;;
70975;SDS011;58635;51.198;6.010;2022-07-06T13:36:18;3.40;;;0.90;;
70975;SDS011;58635;51.198;6.010;2022-07-06T13:38:43;2.30;;;0.90;;
70975;SDS011;58635;51.198;6.010;2022-07-06T13:41:08;3.03;;;1.08;;
70975;SDS011;58635;51.198;6.010;2022-07-06T13:43:34;2.38;;;0.93;;
70975;SDS011;58635;51.198;6.010;2022-07-06T13:46:03;2.00;;;0.75;;
70975;SDS011;58635;51.198;6.010;2022-07-06T13:48:29;2.75;;;0.90;;
70975;SDS011;58635;51.198;6.010;2022-07-06T13:50:56;3.95;;;1.00;;
70975;SDS011;58635;51.198;6.010;2022-07-06T13:53:25;3.17;;;0.82;;
70975;SDS011;58635;51.198;6.010;2022-07-06T13:55:51;2.22;;;0.70;;
70975;SDS011;58635;51.198;6.010;2022-07-06T13:58:17;1.92;;;0.90;;
70975;SDS011;58635;51.198;6.010;2022-07-06T14:00:43;3.22;;;1.05;;
70975;SDS011;58635;51.198;6.010;2022-07-06T14:03:08;2.40;;;0.90;;
70975;SDS011;58635;51.198;6.010;2022-07-06T14:05:34;2.28;;;1.05;;
70975;SDS011;58635;51.198;6.010;2022-07-06T14:08:00;6.15;;;1.00;;
70975;SDS011;58635;51.198;6.010;2022-07-06T14:10:26;2.75;;;0.90;;
70975;SDS011;58635;51.198;6.010;2022-07-06T14:12:51;4.97;;;0.93;;
70975;SDS011;58635;51.198;6.010;2022-07-06T14:15:17;3.08;;;0.90;;
70975;SDS011;58635;51.198;6.010;2022-07-06T14:17:43;2.45;;;0.90;;
70975;SDS011;58635;51.198;6.010;2022-07-06T14:20:08;3.22;;;0.90;;
70975;SDS011;58635;51.198;6.010;2022-07-06T14:22:34;1.77;;;0.65;;
70975;SDS011;58635;51.198;6.010;2022-07-06T14:24:59;3.03;;;0.85;;
70975;SDS011;58635;51.198;6.010;2022-07-06T14:27:25;2.28;;;1.00;;
70975;SDS011;58635;51.198;6.010;2022-07-06T14:29:51;1.90;;;0.90;;
70975;SDS011;58635;51.198;6.010;2022-07-06T14:32:16;4.10;;;0.93;;
70975;SDS011;58635;51.198;6.010;2022-07-06T14:34:42;3.00;;;1.02;;
70975;SDS011;58635;51.198;6.010;2022-07-06T14:37:07;1.77;;;0.85;;
70975;SDS011;58635;51.198;6.010;2022-07-06T14:39:33;3.70;;;0.90;;
70975;SDS011;58635;51.198;6.010;2022-07-06T14:41:58;4.22;;;0.80;;
70975;SDS011;58635;51.198;6.010;2022-07-06T14:44:24;3.25;;;0.75;;
70975;SDS011;58635;51.198;6.010;2022-07-06T14:46:49;3.28;;;0.85;;
70975;SDS011;58635;51.198;6.010;2022-07-06T14:49:14;3.15;;;0.90;;
70975;SDS011;58635;51.198;6.010;2022-07-06T14:51:40;3.15;;;0.68;;
70975;SDS011;58635;51.198;6.010;2022-07-06T14:54:05;2.83;;;0.90;;
70975;SDS011;58635;51.198;6.010;2022-07-06T14:56:30;3.63;;;1.00;;
70975;SDS011;58635;51.198;6.010;2022-07-06T14:58:56;3.53;;;1.00;;
70975;SDS011;58635;51.198;6.010;2022-07-06T15:01:21;4.05;;;0.80;;